Time;durP1;ratioP1;P1;durP2;ratioP2;P2;SDS_P1;SDS_P2;PMS_P1;PMS_P2;Temp;Humidity;BMP_temperature;BMP_pressure;BME280_temperature;BME280_humidity;BME280_pressure;Samples;Min_cycle;Max_cycle;Signal;HPM_P1;HPM_P2
2022/03/10 00:02:10;;;;;;;23.25;14.50;;;;;;;;;;6121966;23;20450;-88
2022/03/10 00:04:36;;;;;;;26.60;14.88;;;;;;;;;;6123877;23;20036;-90
2022/03/10 00:07:03;;;;;;;25.95;13.82;;;;;;;;;;6123116;23;20029;-89
2022/03/10 00:09:29;;;;;;;26.58;13.77;;;;;;;;;;6125783;23;20017;-88
2022/03/10 00:11:55;;;;;;;26.90;14.48;;;;;;;;;;6102360;23;20020;-88
2022/03/10 00:14:21;;;;;;;22.90;12.82;;;;;;;;;;6101774;23;20064;-88
2022/03/10 00:16:47;;;;;;;25.77;13.95;;;;;;;;;;6126507;23;20052;-89
2022/03/10 00:19:14;;;;;;;26.92;14.98;;;;;;;;;;6099521;23;20520;-88
2022/03/10 00:21:40;;;;;;;25.38;14.00;;;;;;;;;;6099883;23;20450;-89
2022/03/10 00:24:06;;;;;;;26.80;15.02;;;;;;;;;;6127541;23;20021;-90
2022/03/10 00:26:33;;;;;;;25.38;14.60;;;;;;;;;;6100259;23;20020;-89
2022/03/10 00:28:59;;;;;;;25.88;14.68;;;;;;;;;;6123466;23;20013;-88
2022/03/10 00:31:25;;;;;;;24.30;14.52;;;;;;;;;;6099908;23;20023;-88
2022/03/10 00:33:51;;;;;;;27.42;14.98;;;;;;;;;;6124102;23;20013;-88
2022/03/10 00:36:17;;;;;;;25.35;13.95;;;;;;;;;;6098025;23;20091;-88
2022/03/10 00:38:43;;;;;;;25.90;14.25;;;;;;;;;;6100000;23;20095;-88
2022/03/10 00:41:09;;;;;;;24.73;15.02;;;;;;;;;;6125885;23;20100;-88
2022/03/10 00:43:36;;;;;;;27.95;16.02;;;;;;;;;;6110240;23;20371;-87
2022/03/10 00:46:02;;;;;;;25.17;14.38;;;;;;;;;;6130229;23;20071;-89
2022/03/10 00:48:29;;;;;;;26.00;15.18;;;;;;;;;;6124984;23;20016;-89
2022/03/10 00:50:55;;;;;;;23.02;13.98;;;;;;;;;;6124014;23;20056;-89
2022/03/10 00:53:21;;;;;;;27.70;15.43;;;;;;;;;;6099855;23;20537;-89
2022/03/10 00:55:47;;;;;;;27.50;16.42;;;;;;;;;;6125087;23;20017;-88
2022/03/10 00:58:13;;;;;;;26.05;16.15;;;;;;;;;;6099822;23;20458;-88
2022/03/10 01:00:39;;;;;;;23.98;15.02;;;;;;;;;;6101571;23;20014;-88
2022/03/10 01:03:05;;;;;;;24.67;14.90;;;;;;;;;;6099669;23;20053;-91
2022/03/10 01:05:32;;;;;;;26.40;14.50;;;;;;;;;;6099807;23;20017;-88
2022/03/10 01:07:58;;;;;;;27.33;16.48;;;;;;;;;;6124780;23;20067;-89
2022/03/10 01:10:24;;;;;;;27.85;16.50;;;;;;;;;;6100184;23;20354;-89
2022/03/10 01:12:50;;;;;;;28.92;16.23;;;;;;;;;;6100647;23;20339;-89
2022/03/10 01:15:18;;;;;;;26.67;15.88;;;;;;;;;;6100019;23;20040;-88
2022/03/10 01:17:44;;;;;;;27.67;15.52;;;;;;;;;;6124227;23;20040;-88
2022/03/10 01:20:10;;;;;;;27.45;16.17;;;;;;;;;;6100154;23;20087;-89
2022/03/10 01:22:37;;;;;;;26.55;16.65;;;;;;;;;;6124994;23;20017;-89
2022/03/10 01:25:07;;;;;;;28.60;16.85;;;;;;;;;;6097727;23;20088;-89
2022/03/10 01:27:33;;;;;;;29.80;17.25;;;;;;;;;;6124497;23;20024;-89
2022/03/10 01:29:59;;;;;;;27.48;17.40;;;;;;;;;;6101246;23;20416;-89
2022/03/10 01:32:26;;;;;;;28.02;16.13;;;;;;;;;;6102326;23;20470;-88
2022/03/10 01:34:52;;;;;;;30.00;16.15;;;;;;;;;;6127160;23;20021;-89
2022/03/10 01:37:19;;;;;;;28.75;16.50;;;;;;;;;;6105210;23;20013;-89
2022/03/10 01:39:45;;;;;;;28.33;15.20;;;;;;;;;;6103584;23;20087;-89
2022/03/10 01:42:11;;;;;;;28.23;16.40;;;;;;;;;;6126879;23;20048;-89
2022/03/10 01:44:37;;;;;;;27.95;14.85;;;;;;;;;;6123527;23;20016;-88
2022/03/10 01:47:05;;;;;;;29.23;15.25;;;;;;;;;;6174460;23;20048;-89
2022/03/10 01:49:32;;;;;;;26.75;14.75;;;;;;;;;;6147501;23;20067;-89
2022/03/10 01:51:59;;;;;;;28.35;15.02;;;;;;;;;;6100470;23;20414;-88
2022/03/10 01:54:25;;;;;;;28.50;15.13;;;;;;;;;;6123134;23;20009;-88
2022/03/10 01:56:51;;;;;;;28.95;15.40;;;;;;;;;;6099748;23;20091;-88
2022/03/10 01:59:18;;;;;;;26.98;15.68;;;;;;;;;;6100596;23;20106;-89
2022/03/10 02:01:44;;;;;;;29.88;14.88;;;;;;;;;;6125750;23;20358;-89
2022/03/10 02:04:11;;;;;;;32.47;15.55;;;;;;;;;;6122782;23;20474;-89
2022/03/10 02:06:37;;;;;;;24.55;14.93;;;;;;;;;;6099517;23;20056;-88
2022/03/10 02:11:48;;;;;;;25.00;14.40;;;;;;;;;;6128259;23;20017;-88
2022/03/10 02:19:45;;;;;;;22.05;14.15;;;;;;;;;;6171855;23;20855;-89
2022/03/10 02:22:12;;;;;;;28.63;15.27;;;;;;;;;;6123434;23;20035;-87
2022/03/10 02:24:40;;;;;;;28.60;15.23;;;;;;;;;;6122640;23;20023;-89
2022/03/10 02:27:22;;;;;;;25.20;14.07;;;;;;;;;;6123185;23;20462;-89
2022/03/10 02:29:49;;;;;;;27.38;14.80;;;;;;;;;;6122493;23;20234;-90
2022/03/10 02:32:15;;;;;;;25.92;15.13;;;;;;;;;;6123231;23;20013;-89
2022/03/10 02:34:42;;;;;;;27.40;14.93;;;;;;;;;;6097901;23;20044;-90
2022/03/10 02:37:08;;;;;;;30.25;15.02;;;;;;;;;;6123324;23;20091;-88
2022/03/10 02:39:34;;;;;;;28.23;15.40;;;;;;;;;;6124023;23;20108;-89
2022/03/10 02:42:01;;;;;;;31.80;15.52;;;;;;;;;;6098407;23;20024;-88
2022/03/10 02:44:27;;;;;;;29.75;15.65;;;;;;;;;;6122989;23;20048;-88
2022/03/10 02:46:53;;;;;;;26.00;15.48;;;;;;;;;;6099942;23;20028;-88
2022/03/10 02:49:19;;;;;;;25.63;14.88;;;;;;;;;;6099263;23;20485;-89
2022/03/10 02:51:45;;;;;;;29.63;16.05;;;;;;;;;;6097738;23;20017;-89
2022/03/10 02:54:12;;;;;;;27.05;15.50;;;;;;;;;;6098134;23;20024;-89
2022/03/10 02:56:38;;;;;;;25.13;14.40;;;;;;;;;;6123444;23;20498;-88
2022/03/10 02:59:04;;;;;;;29.20;16.15;;;;;;;;;;6097745;23;20119;-88
2022/03/10 03:01:31;;;;;;;26.95;15.65;;;;;;;;;;6123672;23;20013;-88
2022/03/10 03:03:57;;;;;;;26.88;14.88;;;;;;;;;;6122398;23;20072;-90
2022/03/10 03:06:23;;;;;;;28.58;14.80;;;;;;;;;;6123659;23;20132;-85
2022/03/10 03:08:49;;;;;;;27.38;14.70;;;;;;;;;;6101211;23;20446;-85
2022/03/10 03:11:15;;;;;;;27.27;14.93;;;;;;;;;;6108687;23;20013;-86
2022/03/10 03:13:41;;;;;;;26.80;14.93;;;;;;;;;;6124028;23;20168;-86
2022/03/10 03:16:08;;;;;;;31.75;16.08;;;;;;;;;;6125177;23;20021;-86
2022/03/10 03:18:34;;;;;;;25.77;14.65;;;;;;;;;;6124025;23;20013;-86
2022/03/10 03:21:01;;;;;;;25.13;15.10;;;;;;;;;;6124268;23;20087;-85
2022/03/10 03:23:27;;;;;;;27.58;15.65;;;;;;;;;;6128108;23;20068;-87
2022/03/10 03:25:53;;;;;;;29.67;15.13;;;;;;;;;;6099743;23;20017;-86
2022/03/10 03:28:23;;;;;;;28.27;15.27;;;;;;;;;;6173346;23;20040;-86
2022/03/10 03:30:50;;;;;;;28.60;15.70;;;;;;;;;;6124064;23;20017;-86
2022/03/10 03:33:17;;;;;;;28.13;15.35;;;;;;;;;;6099617;23;20516;-86
2022/03/10 03:35:43;;;;;;;27.90;15.18;;;;;;;;;;6124050;23;20040;-86
2022/03/10 03:38:09;;;;;;;26.75;14.65;;;;;;;;;;6099807;23;20128;-86
2022/03/10 03:40:35;;;;;;;26.75;14.48;;;;;;;;;;6124389;23;20330;-86
2022/03/10 03:43:01;;;;;;;27.25;14.43;;;;;;;;;;6099040;23;20025;-86
2022/03/10 03:45:28;;;;;;;24.10;14.73;;;;;;;;;;6125012;23;20052;-87
2022/03/10 03:47:54;;;;;;;26.05;14.43;;;;;;;;;;6124652;23;20505;-86
2022/03/10 03:50:21;;;;;;;28.00;14.65;;;;;;;;;;6122128;23;20394;-86
2022/03/10 03:52:47;;;;;;;26.60;14.25;;;;;;;;;;6123595;23;20051;-86
2022/03/10 03:55:13;;;;;;;27.08;14.50;;;;;;;;;;6123394;23;20465;-86
2022/03/10 03:57:40;;;;;;;22.67;14.40;;;;;;;;;;6124589;23;20013;-86
2022/03/10 04:00:07;;;;;;;22.45;13.50;;;;;;;;;;6100535;23;20275;-86
2022/03/10 04:02:33;;;;;;;28.25;14.05;;;;;;;;;;6098509;23;20469;-86
2022/03/10 04:04:59;;;;;;;26.52;15.00;;;;;;;;;;6173046;23;20017;-86
2022/03/10 04:07:25;;;;;;;26.50;14.85;;;;;;;;;;6173725;23;20013;-85
2022/03/10 04:09:52;;;;;;;25.27;14.10;;;;;;;;;;6124548;23;20067;-86
2022/03/10 04:12:18;;;;;;;26.33;15.32;;;;;;;;;;6098522;23;20020;-86
2022/03/10 04:14:44;;;;;;;24.13;14.02;;;;;;;;;;6099276;23;20040;-86
2022/03/10 04:17:10;;;;;;;25.10;14.13;;;;;;;;;;6122820;23;20051;-86
2022/03/10 04:19:36;;;;;;;23.83;14.05;;;;;;;;;;6100026;23;20013;-86
2022/03/10 04:22:03;;;;;;;23.77;13.73;;;;;;;;;;6099772;23;20055;-85
2022/03/10 04:24:29;;;;;;;25.88;14.60;;;;;;;;;;6100759;23;20040;-86
2022/03/10 04:26:56;;;;;;;22.95;14.07;;;;;;;;;;6124130;23;20021;-86
2022/03/10 04:29:22;;;;;;;27.27;13.55;;;;;;;;;;6123255;23;20021;-86
2022/03/10 04:31:48;;;;;;;26.65;14.43;;;;;;;;;;6123107;23;20021;-86
2022/03/10 04:34:15;;;;;;;24.58;13.65;;;;;;;;;;6100861;23;20036;-86
2022/03/10 04:36:41;;;;;;;22.75;12.98;;;;;;;;;;6121885;23;20367;-86
2022/03/10 04:39:07;;;;;;;25.38;13.65;;;;;;;;;;6123396;23;20017;-85
2022/03/10 04:41:34;;;;;;;24.15;14.02;;;;;;;;;;6099357;23;20089;-86
2022/03/10 04:44:00;;;;;;;26.15;13.98;;;;;;;;;;6099199;23;20083;-86
2022/03/10 04:46:27;;;;;;;26.35;14.18;;;;;;;;;;6122579;23;20412;-86
2022/03/10 04:48:53;;;;;;;25.35;14.35;;;;;;;;;;6098496;23;20271;-86
2022/03/10 04:51:20;;;;;;;25.38;14.32;;;;;;;;;;6122141;23;20371;-86
2022/03/10 04:53:46;;;;;;;25.33;13.02;;;;;;;;;;6122378;23;20013;-86
2022/03/10 04:56:13;;;;;;;24.38;14.02;;;;;;;;;;6098823;23;20330;-86
2022/03/10 04:58:39;;;;;;;24.48;14.18;;;;;;;;;;6123243;23;20019;-86
2022/03/10 05:01:05;;;;;;;27.55;14.02;;;;;;;;;;6122339;23;20009;-86
2022/03/10 05:03:34;;;;;;;25.77;15.40;;;;;;;;;;6097902;23;20020;-86
2022/03/10 05:06:01;;;;;;;27.00;14.43;;;;;;;;;;6123799;23;20021;-86
2022/03/10 05:08:27;;;;;;;24.35;13.88;;;;;;;;;;6099404;23;20023;-86
2022/03/10 05:10:53;;;;;;;22.23;12.93;;;;;;;;;;6126829;23;20095;-87
2022/03/10 05:13:19;;;;;;;25.02;14.00;;;;;;;;;;6101320;23;20064;-87
2022/03/10 05:15:46;;;;;;;24.63;12.63;;;;;;;;;;6099964;23;20100;-87
2022/03/10 05:18:12;;;;;;;27.60;14.35;;;;;;;;;;6100832;23;20017;-87
2022/03/10 05:20:38;;;;;;;26.33;14.38;;;;;;;;;;6098172;23;20322;-87
2022/03/10 05:23:05;;;;;;;23.98;13.55;;;;;;;;;;6100192;23;20350;-87
2022/03/10 05:25:35;;;;;;;22.65;13.07;;;;;;;;;;6124882;23;20056;-86
2022/03/10 05:28:01;;;;;;;23.67;13.65;;;;;;;;;;6125217;23;20055;-87
2022/03/10 05:30:27;;;;;;;21.42;12.95;;;;;;;;;;6124902;23;20021;-86
2022/03/10 05:32:53;;;;;;;22.88;13.73;;;;;;;;;;6107370;23;20009;-85
2022/03/10 05:35:20;;;;;;;25.25;13.60;;;;;;;;;;6117955;23;20052;-85
2022/03/10 05:37:48;;;;;;;23.55;12.85;;;;;;;;;;6108098;23;20093;-86
2022/03/10 05:40:20;;;;;;;26.15;14.15;;;;;;;;;;6150159;23;20009;-87
2022/03/10 05:42:47;;;;;;;23.90;13.52;;;;;;;;;;6125740;23;20052;-86
2022/03/10 05:45:14;;;;;;;29.08;14.77;;;;;;;;;;6101524;23;20092;-85
2022/03/10 05:47:41;;;;;;;28.70;14.32;;;;;;;;;;6125328;23;20012;-86
2022/03/10 05:50:08;;;;;;;24.63;13.60;;;;;;;;;;6124246;23;20025;-87
2022/03/10 05:52:34;;;;;;;24.92;13.80;;;;;;;;;;6100782;23;20051;-87
2022/03/10 05:55:00;;;;;;;24.23;13.75;;;;;;;;;;6100004;23;20100;-87
2022/03/10 05:57:27;;;;;;;26.05;13.52;;;;;;;;;;6125064;23;20059;-87
2022/03/10 05:59:53;;;;;;;29.48;14.73;;;;;;;;;;6100621;23;20013;-87
2022/03/10 06:02:19;;;;;;;25.98;14.48;;;;;;;;;;6125208;23;20013;-87
2022/03/10 06:04:45;;;;;;;25.20;14.60;;;;;;;;;;6125738;23;20013;-86
2022/03/10 06:07:12;;;;;;;23.00;13.95;;;;;;;;;;6173410;23;20021;-87
2022/03/10 06:09:38;;;;;;;26.63;14.90;;;;;;;;;;6174693;23;20036;-86
2022/03/10 06:12:04;;;;;;;25.77;14.60;;;;;;;;;;6101285;23;20017;-87
2022/03/10 06:14:31;;;;;;;28.40;15.70;;;;;;;;;;6100483;23;20017;-87
2022/03/10 06:16:57;;;;;;;26.92;15.02;;;;;;;;;;6125124;23;20021;-87
2022/03/10 06:19:24;;;;;;;30.30;14.95;;;;;;;;;;6102381;23;20017;-87
2022/03/10 06:21:54;;;;;;;31.35;15.13;;;;;;;;;;6078155;23;20045;-86
2022/03/10 06:24:20;;;;;;;39.60;15.52;;;;;;;;;;6173168;23;20044;-87
2022/03/10 06:26:46;;;;;;;25.13;14.43;;;;;;;;;;6100352;23;20017;-87
2022/03/10 06:29:13;;;;;;;24.02;14.95;;;;;;;;;;6127573;23;20306;-87
2022/03/10 06:31:47;;;;;;;31.85;14.85;;;;;;;;;;6102958;23;20024;-86
2022/03/10 06:34:22;;;;;;;28.08;15.30;;;;;;;;;;6127702;23;20058;-88
2022/03/10 06:36:48;;;;;;;27.33;15.07;;;;;;;;;;6100265;23;20341;-87
2022/03/10 06:39:14;;;;;;;28.60;15.25;;;;;;;;;;6101008;23;20048;-87
2022/03/10 06:41:40;;;;;;;33.30;16.10;;;;;;;;;;6126585;23;20064;-87
2022/03/10 06:44:07;;;;;;;31.73;15.95;;;;;;;;;;6127572;23;20021;-85
2022/03/10 06:46:33;;;;;;;27.20;15.30;;;;;;;;;;6103745;23;20016;-85
2022/03/10 06:49:00;;;;;;;24.65;14.68;;;;;;;;;;6103301;23;20020;-85
2022/03/10 06:51:26;;;;;;;27.88;17.00;;;;;;;;;;6104155;23;20458;-88
2022/03/10 06:53:52;;;;;;;29.75;16.08;;;;;;;;;;6101181;23;20021;-85
2022/03/10 06:56:18;;;;;;;27.00;15.65;;;;;;;;;;6105720;23;20009;-85
2022/03/10 06:58:44;;;;;;;27.88;15.73;;;;;;;;;;6104296;23;20013;-85
2022/03/10 07:01:10;;;;;;;27.08;15.52;;;;;;;;;;6127833;23;20351;-85
2022/03/10 07:03:37;;;;;;;28.92;16.77;;;;;;;;;;6126545;23;20017;-85
2022/03/10 07:06:03;;;;;;;29.20;15.50;;;;;;;;;;6126649;23;20139;-86
2022/03/10 07:08:29;;;;;;;41.92;16.20;;;;;;;;;;6126643;23;20358;-86
2022/03/10 07:10:55;;;;;;;32.85;16.33;;;;;;;;;;6127459;23;20017;-85
2022/03/10 07:13:21;;;;;;;27.42;15.68;;;;;;;;;;6102654;23;20393;-86
2022/03/10 07:15:47;;;;;;;34.55;15.82;;;;;;;;;;6126562;23;20084;-85
2022/03/10 07:18:13;;;;;;;34.90;15.43;;;;;;;;;;6101208;23;20009;-86
2022/03/10 07:20:40;;;;;;;25.23;14.45;;;;;;;;;;6103298;23;20020;-86
2022/03/10 07:23:06;;;;;;;25.75;14.10;;;;;;;;;;6105316;23;20044;-88
2022/03/10 07:25:32;;;;;;;25.33;14.48;;;;;;;;;;6104252;23;20021;-86
2022/03/10 07:27:58;;;;;;;27.85;14.30;;;;;;;;;;6128975;23;20385;-88
2022/03/10 07:30:24;;;;;;;28.33;14.43;;;;;;;;;;6102957;23;20095;-88
2022/03/10 07:32:50;;;;;;;26.20;14.80;;;;;;;;;;6127896;23;20104;-88
2022/03/10 07:35:16;;;;;;;29.00;14.60;;;;;;;;;;6103731;23;20017;-88
2022/03/10 07:37:43;;;;;;;25.67;14.13;;;;;;;;;;6102913;23;20075;-85
2022/03/10 07:40:09;;;;;;;26.23;13.30;;;;;;;;;;6103178;23;20013;-86
2022/03/10 07:42:35;;;;;;;25.40;14.38;;;;;;;;;;6127909;23;20009;-85
2022/03/10 07:45:02;;;;;;;25.33;13.43;;;;;;;;;;6103307;23;20363;-85
2022/03/10 07:47:28;;;;;;;27.98;14.50;;;;;;;;;;6127940;23;20020;-86
2022/03/10 07:49:54;;;;;;;22.63;12.63;;;;;;;;;;6127844;23;20024;-85
2022/03/10 07:52:21;;;;;;;28.02;13.70;;;;;;;;;;6103609;23;20095;-87
2022/03/10 07:54:47;;;;;;;22.52;13.18;;;;;;;;;;6127417;23;20031;-85
2022/03/10 07:57:13;;;;;;;29.15;14.90;;;;;;;;;;6103888;23;20453;-85
2022/03/10 07:59:39;;;;;;;22.10;13.13;;;;;;;;;;6127310;23;20068;-85
2022/03/10 08:02:05;;;;;;;29.30;13.35;;;;;;;;;;6126133;23;20575;-85
2022/03/10 08:04:32;;;;;;;25.10;13.60;;;;;;;;;;6126196;23;20017;-86
2022/03/10 08:06:58;;;;;;;26.13;12.95;;;;;;;;;;6126767;23;20049;-85
2022/03/10 08:09:24;;;;;;;20.80;11.43;;;;;;;;;;6126098;23;20021;-86
2022/03/10 08:11:50;;;;;;;22.35;12.68;;;;;;;;;;6125920;23;20405;-86
2022/03/10 08:14:16;;;;;;;24.92;12.73;;;;;;;;;;6151307;23;20028;-87
2022/03/10 08:16:43;;;;;;;27.08;12.52;;;;;;;;;;6126159;23;20261;-87
2022/03/10 08:19:09;;;;;;;23.67;13.05;;;;;;;;;;6101608;23;20039;-86
2022/03/10 08:21:35;;;;;;;25.40;12.52;;;;;;;;;;6099758;23;20017;-87
2022/03/10 08:24:01;;;;;;;20.77;13.10;;;;;;;;;;6100176;23;20021;-86
2022/03/10 08:26:27;;;;;;;20.58;13.48;;;;;;;;;;6125690;23;20020;-86
2022/03/10 08:28:54;;;;;;;25.52;13.73;;;;;;;;;;6101021;23;20013;-87
2022/03/10 08:31:20;;;;;;;22.20;12.90;;;;;;;;;;6102135;23;20017;-86
2022/03/10 08:33:46;;;;;;;24.10;13.43;;;;;;;;;;6126014;23;20021;-86
2022/03/10 08:36:13;;;;;;;19.48;12.60;;;;;;;;;;6125971;23;20009;-88
2022/03/10 08:38:39;;;;;;;21.60;13.43;;;;;;;;;;6131424;23;20013;-87
2022/03/10 08:41:06;;;;;;;22.63;12.55;;;;;;;;;;6100565;23;20013;-87
2022/03/10 08:43:33;;;;;;;22.77;13.45;;;;;;;;;;6123338;23;20017;-86
2022/03/10 08:46:09;;;;;;;20.63;13.27;;;;;;;;;;6100617;23;20016;-86
2022/03/10 08:48:36;;;;;;;20.60;12.15;;;;;;;;;;6104087;23;20017;-87
2022/03/10 08:51:03;;;;;;;23.55;13.15;;;;;;;;;;6101028;23;20072;-87
2022/03/10 08:53:30;;;;;;;21.50;12.85;;;;;;;;;;6125953;23;20020;-87
2022/03/10 08:55:56;;;;;;;23.23;12.80;;;;;;;;;;6101866;23;20088;-87
2022/03/10 08:58:24;;;;;;;19.55;12.82;;;;;;;;;;6100418;23;20091;-87
2022/03/10 09:00:50;;;;;;;20.30;12.75;;;;;;;;;;6101284;23;20032;-86
2022/03/10 09:03:16;;;;;;;19.77;12.20;;;;;;;;;;6100374;23;20052;-87
2022/03/10 09:05:42;;;;;;;23.73;12.68;;;;;;;;;;6101258;23;20049;-88
2022/03/10 09:08:09;;;;;;;21.25;12.75;;;;;;;;;;6101804;23;20023;-87
2022/03/10 09:10:35;;;;;;;18.17;12.30;;;;;;;;;;6124559;23;20394;-87
2022/03/10 09:13:02;;;;;;;24.83;13.55;;;;;;;;;;6124724;23;20052;-87
2022/03/10 09:15:28;;;;;;;21.00;12.52;;;;;;;;;;6125999;23;20017;-88
2022/03/10 09:17:54;;;;;;;22.42;13.13;;;;;;;;;;6102282;23;20450;-87
2022/03/10 09:20:21;;;;;;;22.85;13.07;;;;;;;;;;6174671;23;20017;-87
2022/03/10 09:22:48;;;;;;;22.75;12.45;;;;;;;;;;6101075;23;20099;-87
2022/03/10 09:25:14;;;;;;;24.00;13.60;;;;;;;;;;6125262;23;20016;-87
2022/03/10 09:27:41;;;;;;;18.73;12.35;;;;;;;;;;6126111;23;20019;-86
2022/03/10 09:30:08;;;;;;;20.25;12.82;;;;;;;;;;6101480;23;20020;-87
2022/03/10 09:32:38;;;;;;;18.27;12.30;;;;;;;;;;6126379;23;20048;-87
2022/03/10 09:35:05;;;;;;;23.20;13.70;;;;;;;;;;6101621;23;20013;-86
2022/03/10 09:37:31;;;;;;;21.27;13.38;;;;;;;;;;6102038;23;20017;-86
2022/03/10 09:39:58;;;;;;;22.40;13.15;;;;;;;;;;6100756;23;20346;-87
2022/03/10 09:42:27;;;;;;;20.42;13.18;;;;;;;;;;6100752;23;20281;-87
2022/03/10 09:44:54;;;;;;;21.33;12.90;;;;;;;;;;6146858;23;20014;-86
2022/03/10 09:47:20;;;;;;;27.83;13.57;;;;;;;;;;6120052;23;20072;-88
2022/03/10 09:49:47;;;;;;;22.27;13.35;;;;;;;;;;6120716;23;20013;-87
2022/03/10 09:52:13;;;;;;;21.85;13.30;;;;;;;;;;6119268;23;20009;-87
2022/03/10 09:54:39;;;;;;;21.58;13.80;;;;;;;;;;6119655;23;20010;-87
2022/03/10 09:57:06;;;;;;;19.48;12.73;;;;;;;;;;6143188;23;20036;-87
2022/03/10 09:59:33;;;;;;;21.88;12.75;;;;;;;;;;6119804;23;20204;-87
2022/03/10 10:01:59;;;;;;;22.75;13.30;;;;;;;;;;6147386;23;20009;-88
2022/03/10 10:04:27;;;;;;;19.02;13.38;;;;;;;;;;6143999;23;20074;-87
2022/03/10 10:07:21;;;;;;;29.67;13.98;;;;;;;;;;6119846;23;20021;-88
2022/03/10 10:09:58;;;;;;;24.15;13.30;;;;;;;;;;6114120;23;20049;-88
2022/03/10 10:12:25;;;;;;;20.20;13.85;;;;;;;;;;6168019;23;20022;-88
2022/03/10 10:14:51;;;;;;;21.15;13.60;;;;;;;;;;6143328;23;20212;-88
2022/03/10 10:17:25;;;;;;;23.63;13.70;;;;;;;;;;6144859;23;20021;-88
2022/03/10 10:19:53;;;;;;;22.63;13.30;;;;;;;;;;6145421;23;20458;-89
2022/03/10 10:22:20;;;;;;;23.95;14.07;;;;;;;;;;6145103;23;20021;-88
2022/03/10 10:25:00;;;;;;;17.98;13.32;;;;;;;;;;6121538;23;20059;-89
2022/03/10 10:27:26;;;;;;;23.65;13.48;;;;;;;;;;6145487;23;20327;-89
2022/03/10 10:29:56;;;;;;;23.63;13.73;;;;;;;;;;6145978;23;20516;-88
2022/03/10 10:32:28;;;;;;;22.60;13.60;;;;;;;;;;6146472;23;20017;-88
2022/03/10 10:35:08;;;;;;;22.63;13.25;;;;;;;;;;6146330;23;20398;-88
2022/03/10 10:37:35;;;;;;;21.27;13.73;;;;;;;;;;6146780;23;20108;-88
2022/03/10 10:40:02;;;;;;;22.10;14.38;;;;;;;;;;6145406;23;20020;-88
2022/03/10 10:42:36;;;;;;;20.17;13.15;;;;;;;;;;6143428;23;20064;-87
2022/03/10 10:45:22;;;;;;;21.48;13.32;;;;;;;;;;6146061;23;20404;-89
2022/03/10 10:47:58;;;;;;;20.33;13.35;;;;;;;;;;6146157;23;20248;-89
2022/03/10 10:50:24;;;;;;;20.15;13.50;;;;;;;;;;6121597;23;20079;-87
2022/03/10 10:52:51;;;;;;;22.35;13.88;;;;;;;;;;6120811;23;20025;-89
2022/03/10 10:55:17;;;;;;;20.67;13.05;;;;;;;;;;6120290;23;20017;-88
2022/03/10 10:57:44;;;;;;;20.20;13.48;;;;;;;;;;6120565;23;20052;-89
2022/03/10 11:00:13;;;;;;;22.27;14.38;;;;;;;;;;6146064;23;20025;-87
2022/03/10 11:02:43;;;;;;;20.95;13.38;;;;;;;;;;6144296;23;20036;-89
2022/03/10 11:05:14;;;;;;;21.00;13.45;;;;;;;;;;6121455;23;20013;-89
2022/03/10 11:07:40;;;;;;;27.20;14.43;;;;;;;;;;6145462;23;20214;-87
2022/03/10 11:10:08;;;;;;;22.15;14.30;;;;;;;;;;6149348;23;20021;-89
2022/03/10 11:12:37;;;;;;;25.63;14.02;;;;;;;;;;6145373;23;20100;-88
2022/03/10 11:15:04;;;;;;;23.42;15.02;;;;;;;;;;6144963;23;20010;-90
2022/03/10 11:17:30;;;;;;;22.73;14.40;;;;;;;;;;6144512;23;20017;-88
2022/03/10 11:19:56;;;;;;;23.05;14.15;;;;;;;;;;6121430;23;20013;-89
2022/03/10 11:22:44;;;;;;;22.58;14.80;;;;;;;;;;6145630;23;20020;-87
2022/03/10 11:25:15;;;;;;;22.58;15.00;;;;;;;;;;6146044;23;20100;-89
2022/03/10 11:27:51;;;;;;;22.30;14.40;;;;;;;;;;6144743;23;20506;-88
2022/03/10 11:30:18;;;;;;;25.65;16.05;;;;;;;;;;6148370;23;20057;-87
2022/03/10 11:32:59;;;;;;;23.58;14.77;;;;;;;;;;6122910;23;20042;-89
2022/03/10 11:35:30;;;;;;;25.08;14.85;;;;;;;;;;6144682;23;20461;-89
2022/03/10 11:37:56;;;;;;;23.77;14.35;;;;;;;;;;6146076;23;20020;-89
2022/03/10 11:40:41;;;;;;;22.25;15.45;;;;;;;;;;6120823;23;20478;-89
2022/03/10 11:43:08;;;;;;;22.85;13.77;;;;;;;;;;6151450;23;20017;-88
2022/03/10 11:45:34;;;;;;;23.25;15.70;;;;;;;;;;6149247;23;20013;-89
2022/03/10 11:48:20;;;;;;;22.58;15.02;;;;;;;;;;6125870;23;20013;-89
2022/03/10 11:50:47;;;;;;;21.95;15.18;;;;;;;;;;6066119;23;20099;-89
2022/03/10 11:53:13;;;;;;;25.15;14.52;;;;;;;;;;6125991;23;20009;-88
2022/03/10 11:55:48;;;;;;;23.60;15.15;;;;;;;;;;6127332;23;20017;-88
2022/03/10 11:58:17;;;;;;;21.67;14.73;;;;;;;;;;6152964;23;20013;-88
2022/03/10 12:00:50;;;;;;;21.52;15.20;;;;;;;;;;6149784;23;20322;-89
2022/03/10 12:03:35;;;;;;;22.75;14.95;;;;;;;;;;6149898;23;20021;-90
2022/03/10 12:06:08;;;;;;;23.35;14.68;;;;;;;;;;6151551;23;20373;-89
2022/03/10 12:08:42;;;;;;;25.02;16.02;;;;;;;;;;6151040;23;20372;-89
2022/03/10 12:11:14;;;;;;;26.98;15.02;;;;;;;;;;6149924;23;20021;-88
2022/03/10 12:13:44;;;;;;;27.60;15.77;;;;;;;;;;6149925;23;20426;-89
2022/03/10 12:16:22;;;;;;;27.27;16.55;;;;;;;;;;6151663;23;20446;-90
2022/03/10 12:18:49;;;;;;;27.92;15.23;;;;;;;;;;6149087;23;20506;-90
2022/03/10 12:21:16;;;;;;;21.77;15.30;;;;;;;;;;6125669;23;20450;-88
2022/03/10 12:23:51;;;;;;;22.90;15.02;;;;;;;;;;6148558;23;20016;-89
2022/03/10 12:26:24;;;;;;;24.42;15.60;;;;;;;;;;6152138;23;20282;-89
2022/03/10 12:28:51;;;;;;;22.13;14.73;;;;;;;;;;6153146;23;20095;-89
2022/03/10 12:31:19;;;;;;;25.23;15.35;;;;;;;;;;6153420;23;20051;-90
2022/03/10 12:33:46;;;;;;;24.15;15.13;;;;;;;;;;6150892;23;20206;-90
2022/03/10 12:36:15;;;;;;;23.85;14.98;;;;;;;;;;6152403;23;20024;-88
2022/03/10 12:38:44;;;;;;;24.05;15.38;;;;;;;;;;6150199;23;20021;-89
2022/03/10 12:41:11;;;;;;;29.00;15.68;;;;;;;;;;6150315;23;20055;-89
2022/03/10 12:43:37;;;;;;;25.42;15.82;;;;;;;;;;6152002;23;20017;-89
2022/03/10 12:46:04;;;;;;;24.98;15.63;;;;;;;;;;6129994;23;20024;-88
2022/03/10 12:48:50;;;;;;;24.88;14.60;;;;;;;;;;6151512;23;20023;-89
2022/03/10 12:51:28;;;;;;;25.55;15.43;;;;;;;;;;6150713;23;20021;-87
2022/03/10 12:53:54;;;;;;;23.88;14.98;;;;;;;;;;6148553;23;20009;-90
2022/03/10 12:56:21;;;;;;;27.90;15.43;;;;;;;;;;6150377;23;20407;-89
2022/03/10 12:58:48;;;;;;;29.20;16.10;;;;;;;;;;6149099;23;20013;-87
2022/03/10 13:01:18;;;;;;;26.75;15.38;;;;;;;;;;6149542;23;20040;-89
2022/03/10 13:03:48;;;;;;;24.38;15.55;;;;;;;;;;6151550;23;20099;-90
2022/03/10 13:06:19;;;;;;;21.15;14.43;;;;;;;;;;6150519;23;20346;-88
2022/03/10 13:08:51;;;;;;;23.73;15.63;;;;;;;;;;6150440;23;20704;-90
2022/03/10 13:11:26;;;;;;;24.50;14.57;;;;;;;;;;6150527;23;20331;-89
2022/03/10 13:14:11;;;;;;;23.65;14.75;;;;;;;;;;6148554;23;20099;-90
2022/03/10 13:16:39;;;;;;;23.05;15.38;;;;;;;;;;6146355;23;20021;-87
2022/03/10 13:19:06;;;;;;;26.42;15.15;;;;;;;;;;6145285;23;20092;-88
2022/03/10 13:21:32;;;;;;;27.13;15.30;;;;;;;;;;6123039;23;20059;-87
2022/03/10 13:23:59;;;;;;;23.08;14.70;;;;;;;;;;6124770;23;20017;-88
2022/03/10 13:26:25;;;;;;;26.50;15.77;;;;;;;;;;6147789;23;20096;-88
2022/03/10 13:28:54;;;;;;;26.67;14.98;;;;;;;;;;6123484;23;20048;-88
2022/03/10 13:31:27;;;;;;;22.75;14.63;;;;;;;;;;6151119;23;20021;-88
2022/03/10 13:33:55;;;;;;;24.23;15.68;;;;;;;;;;6125656;23;20446;-89
2022/03/10 13:36:22;;;;;;;25.45;15.55;;;;;;;;;;6148826;23;20100;-89
2022/03/10 13:38:48;;;;;;;23.40;15.07;;;;;;;;;;6149177;23;20013;-90
2022/03/10 13:41:14;;;;;;;25.48;16.02;;;;;;;;;;6149939;23;20079;-88
2022/03/10 13:43:40;;;;;;;25.27;15.63;;;;;;;;;;6124649;23;20737;-87
2022/03/10 13:46:15;;;;;;;25.45;15.60;;;;;;;;;;6152828;23;20021;-89
2022/03/10 13:48:48;;;;;;;24.20;15.38;;;;;;;;;;6152683;23;20517;-88
2022/03/10 13:51:15;;;;;;;24.83;15.63;;;;;;;;;;6151675;23;20096;-89
2022/03/10 13:53:52;;;;;;;23.52;15.65;;;;;;;;;;6152608;23;20036;-90
2022/03/10 13:56:19;;;;;;;26.00;16.45;;;;;;;;;;6152873;23;20017;-90
2022/03/10 13:59:11;;;;;;;25.15;15.07;;;;;;;;;;6151232;23;20013;-89
2022/03/10 14:01:39;;;;;;;24.70;16.45;;;;;;;;;;6125734;23;20009;-89
2022/03/10 14:04:16;;;;;;;25.80;16.17;;;;;;;;;;6148907;23;20095;-89
2022/03/10 14:06:42;;;;;;;25.63;15.90;;;;;;;;;;6126993;23;20028;-89
2022/03/10 14:09:20;;;;;;;24.05;16.15;;;;;;;;;;6150917;23;20017;-89
2022/03/10 14:11:51;;;;;;;26.40;16.45;;;;;;;;;;6150504;23;20017;-90
2022/03/10 14:14:30;;;;;;;25.13;16.90;;;;;;;;;;6150854;23;20322;-90
2022/03/10 14:17:00;;;;;;;23.20;16.35;;;;;;;;;;6149105;23;20043;-90
2022/03/10 14:19:34;;;;;;;25.60;16.15;;;;;;;;;;6157450;23;20477;-89
2022/03/10 14:22:21;;;;;;;24.63;17.40;;;;;;;;;;6155503;23;20013;-90
2022/03/10 14:24:55;;;;;;;25.20;17.08;;;;;;;;;;6145955;23;20091;-89
2022/03/10 14:27:22;;;;;;;28.02;18.02;;;;;;;;;;6154707;23;20017;-89
2022/03/10 14:30:01;;;;;;;23.40;17.23;;;;;;;;;;6130893;23;20044;-89